Time;durP1;ratioP1;P1;durP2;ratioP2;P2;SDS_P1;SDS_P2;PMS_P1;PMS_P2;Temp;Humidity;BMP_temperature;BMP_pressure;BME280_temperature;BME280_humidity;BME280_pressure;Samples;Min_cycle;Max_cycle;Signal;HPM_P1;HPM_P2
2023/04/23 00:01:01;;;;;;;70.45;31.33;;;10.70;99.90;;;;;;5002800;28;20026;-78
2023/04/23 00:03:29;;;;;;;64.38;31.20;;;10.70;99.90;;;;;;4988314;28;20541;-78
2023/04/23 00:05:56;;;;;;;67.22;31.42;;;10.70;99.90;;;;;;4977430;28;20026;-78
2023/04/23 00:08:22;;;;;;;65.25;31.35;;;10.70;99.90;;;;;;5013266;28;20063;-78
2023/04/23 00:10:48;;;;;;;70.50;31.80;;;10.70;99.90;;;;;;4994564;28;20025;-78
2023/04/23 00:13:14;;;;;;;67.82;32.03;;;10.70;99.90;;;;;;4999892;28;20543;-78
2023/04/23 00:15:40;;;;;;;69.25;31.60;;;10.80;99.90;;;;;;5010758;28;20022;-78
2023/04/23 00:18:06;;;;;;;61.90;30.63;;;10.80;99.90;;;;;;4998389;28;20053;-78
2023/04/23 00:20:34;;;;;;;67.78;31.33;;;10.80;99.90;;;;;;5005278;28;20053;-78
2023/04/23 00:23:00;;;;;;;66.75;31.63;;;10.80;99.90;;;;;;4994717;28;20032;-78
2023/04/23 00:25:25;;;;;;;71.30;31.67;;;10.80;99.90;;;;;;4994672;28;20029;-79
2023/04/23 00:27:51;;;;;;;63.13;31.77;;;10.80;99.90;;;;;;4992319;28;20034;-79
2023/04/23 00:30:17;;;;;;;66.20;32.10;;;10.80;99.90;;;;;;4992339;28;20532;-80
2023/04/23 00:32:43;;;;;;;68.72;31.70;;;10.80;99.90;;;;;;5012167;28;20079;-79
2023/04/23 00:35:09;;;;;;;67.80;31.08;;;10.70;99.90;;;;;;4993032;28;20061;-79
2023/04/23 00:37:35;;;;;;;65.55;32.42;;;10.70;99.90;;;;;;5017592;28;20081;-80
2023/04/23 00:40:01;;;;;;;67.20;31.15;;;10.70;99.90;;;;;;4999842;28;20134;-79
2023/04/23 00:42:27;;;;;;;73.47;32.70;;;10.70;99.90;;;;;;4993613;28;20436;-81
2023/04/23 00:44:54;;;;;;;72.70;33.45;;;10.60;99.90;;;;;;5011234;28;20018;-79
2023/04/23 00:47:21;;;;;;;68.18;31.90;;;10.70;99.90;;;;;;4996321;28;20036;-80
2023/04/23 00:49:49;;;;;;;71.72;32.85;;;10.70;99.90;;;;;;5009136;28;20076;-79
2023/04/23 00:52:15;;;;;;;73.82;33.63;;;10.70;99.90;;;;;;4993437;28;20030;-79
2023/04/23 00:54:41;;;;;;;68.47;31.23;;;10.60;99.90;;;;;;5010180;28;20544;-79
2023/04/23 00:57:07;;;;;;;72.75;33.63;;;10.60;99.90;;;;;;5001162;28;20108;-80
2023/04/23 00:59:33;;;;;;;72.97;33.25;;;10.50;99.90;;;;;;4996667;28;20513;-80
2023/04/23 01:01:59;;;;;;;71.55;33.42;;;10.60;99.90;;;;;;4994985;28;20109;-79
2023/04/23 01:04:29;;;;;;;74.60;34.17;;;10.60;99.90;;;;;;4997509;28;20042;-80
2023/04/23 01:06:58;;;;;;;79.78;33.97;;;10.50;99.90;;;;;;4995705;28;20034;-80
2023/04/23 01:09:26;;;;;;;79.50;34.50;;;10.50;99.90;;;;;;4993786;28;20096;-84
2023/04/23 01:11:52;;;;;;;76.80;34.40;;;10.40;99.90;;;;;;5009997;28;20026;-79
2023/04/23 01:14:21;;;;;;;77.38;33.92;;;10.40;99.90;;;;;;5000449;28;20335;-79
2023/04/23 01:16:46;;;;;;;79.32;36.00;;;10.40;99.90;;;;;;4996508;28;20378;-79
2023/04/23 01:19:14;;;;;;;81.55;35.65;;;10.40;99.90;;;;;;4994249;28;20026;-79
2023/04/23 01:21:41;;;;;;;83.30;37.40;;;10.30;99.90;;;;;;5006807;28;20022;-79
2023/04/23 01:24:08;;;;;;;81.30;35.20;;;10.30;99.90;;;;;;4987537;28;20024;-79
2023/04/23 01:26:34;;;;;;;77.68;36.13;;;10.30;99.90;;;;;;4995417;28;20021;-79
2023/04/23 01:29:00;;;;;;;77.38;35.42;;;10.30;99.90;;;;;;5010452;28;20029;-79
2023/04/23 01:31:27;;;;;;;74.65;34.47;;;10.30;99.90;;;;;;4993928;28;20399;-79
2023/04/23 01:33:54;;;;;;;80.18;35.75;;;10.30;99.90;;;;;;4993477;28;20448;-78
2023/04/23 01:36:24;;;;;;;81.95;36.72;;;10.30;99.90;;;;;;4995466;28;20049;-79
2023/04/23 01:38:50;;;;;;;80.57;36.63;;;10.30;99.90;;;;;;4998313;28;20030;-79
2023/04/23 01:41:16;;;;;;;76.20;35.03;;;10.30;99.90;;;;;;4990726;28;20057;-79
2023/04/23 01:43:45;;;;;;;81.78;35.15;;;10.20;99.90;;;;;;5010663;28;20132;-83
2023/04/23 01:46:11;;;;;;;78.55;34.22;;;10.20;99.90;;;;;;4995671;28;20470;-83
2023/04/23 01:48:37;;;;;;;77.40;35.05;;;10.20;99.90;;;;;;4997063;28;20077;-83
2023/04/23 01:51:03;;;;;;;83.93;37.22;;;10.20;99.90;;;;;;4982963;28;20014;-81
2023/04/23 01:53:29;;;;;;;85.07;36.60;;;10.20;99.90;;;;;;5006512;28;20072;-79
2023/04/23 01:55:55;;;;;;;78.82;34.75;;;10.20;99.90;;;;;;4992044;28;20663;-83
2023/04/23 01:58:24;;;;;;;72.97;33.22;;;10.10;99.90;;;;;;4993380;28;20132;-84
2023/04/23 02:00:49;;;;;;;80.35;34.65;;;10.10;99.90;;;;;;4977881;28;20050;-84
2023/04/23 02:05:54;;;;;;;81.25;36.28;;;10.00;99.90;;;;;;5011482;22;20045;-84
2023/04/23 02:08:19;;;;;;;85.32;36.78;;;10.00;99.90;;;;;;4977484;28;20084;-83
2023/04/23 02:10:45;;;;;;;78.07;35.53;;;10.00;99.90;;;;;;4984358;28;20025;-79
2023/04/23 02:13:11;;;;;;;76.10;34.92;;;9.90;99.90;;;;;;4977841;28;20099;-84
2023/04/23 02:15:39;;;;;;;91.00;37.40;;;9.90;99.90;;;;;;4980035;28;20113;-84
2023/04/23 02:18:05;;;;;;;82.15;36.22;;;9.90;99.90;;;;;;4978405;28;20026;-84
2023/04/23 02:20:31;;;;;;;85.10;35.58;;;9.90;99.90;;;;;;4975599;28;20455;-79
2023/04/23 02:22:57;;;;;;;87.18;37.25;;;9.90;99.90;;;;;;4973160;28;20025;-84
2023/04/23 02:25:22;;;;;;;92.68;38.78;;;10.00;99.90;;;;;;4984165;28;20389;-83
2023/04/23 02:27:49;;;;;;;91.78;37.90;;;10.00;99.90;;;;;;4977301;28;20353;-84
2023/04/23 02:30:15;;;;;;;91.32;37.65;;;10.00;99.90;;;;;;4977314;28;20038;-84
2023/04/23 02:32:41;;;;;;;87.82;37.53;;;10.00;99.90;;;;;;4977157;28;20030;-81
2023/04/23 02:35:09;;;;;;;91.03;39.17;;;10.00;99.90;;;;;;4982607;28;20164;-84
2023/04/23 02:37:36;;;;;;;85.22;37.22;;;9.90;99.90;;;;;;4993541;28;20036;-83
2023/04/23 02:40:04;;;;;;;85.28;37.25;;;10.00;99.90;;;;;;4973847;28;20028;-83
2023/04/23 02:42:30;;;;;;;88.15;37.88;;;10.00;99.90;;;;;;4976766;28;20192;-84
2023/04/23 02:44:58;;;;;;;86.85;37.75;;;10.00;99.90;;;;;;4982098;28;20161;-82
2023/04/23 02:47:23;;;;;;;86.22;37.58;;;10.00;99.90;;;;;;4978822;28;20022;-81
2023/04/23 02:49:49;;;;;;;92.25;38.85;;;10.10;99.90;;;;;;4984058;28;20033;-84
2023/04/23 02:52:15;;;;;;;81.30;37.38;;;10.20;99.90;;;;;;4984251;28;20120;-85
2023/04/23 02:54:40;;;;;;;86.15;37.00;;;10.30;99.90;;;;;;4973677;28;20453;-84
2023/04/23 02:57:06;;;;;;;83.55;34.95;;;10.30;99.90;;;;;;4976585;28;20022;-82
2023/04/23 02:59:34;;;;;;;91.65;36.08;;;10.20;99.90;;;;;;4973338;28;20022;-84
2023/04/23 03:02:00;;;;;;;81.25;36.42;;;10.20;99.90;;;;;;4979652;28;20023;-84
2023/04/23 03:04:26;;;;;;;76.32;34.60;;;10.20;99.90;;;;;;4977379;28;20029;-84
2023/04/23 03:06:52;;;;;;;85.18;36.30;;;10.10;99.90;;;;;;4985934;28;20118;-82
2023/04/23 03:09:17;;;;;;;83.03;36.22;;;10.10;99.90;;;;;;4991120;28;20061;-81
2023/04/23 03:11:43;;;;;;;74.07;34.90;;;10.10;99.90;;;;;;4984081;28;20022;-82
2023/04/23 03:14:09;;;;;;;77.80;34.88;;;10.10;99.90;;;;;;4985571;28;20033;-81
2023/04/23 03:16:35;;;;;;;88.07;35.35;;;10.00;99.90;;;;;;4982683;28;20233;-82
2023/04/23 03:19:01;;;;;;;79.07;34.38;;;10.00;99.90;;;;;;4987803;28;20422;-82
2023/04/23 03:21:26;;;;;;;78.13;34.55;;;10.10;99.90;;;;;;4984008;28;20108;-82
2023/04/23 03:23:52;;;;;;;76.72;33.97;;;10.10;99.90;;;;;;4985642;28;20044;-83
2023/04/23 03:26:17;;;;;;;72.35;32.55;;;10.00;99.90;;;;;;4981163;28;20227;-82
2023/04/23 03:28:43;;;;;;;79.90;35.55;;;10.00;99.90;;;;;;4986809;28;20098;-81
2023/04/23 03:31:09;;;;;;;70.65;34.30;;;10.10;99.90;;;;;;4979753;28;20129;-83
2023/04/23 03:33:34;;;;;;;77.40;35.85;;;10.00;99.90;;;;;;4986279;28;20052;-82
2023/04/23 03:36:01;;;;;;;81.75;36.05;;;10.00;99.90;;;;;;4995679;28;20541;-85
2023/04/23 03:38:26;;;;;;;81.20;35.63;;;10.00;99.90;;;;;;4975714;28;20458;-85
2023/04/23 03:40:52;;;;;;;74.68;34.15;;;10.10;99.90;;;;;;4982128;28;20097;-84
2023/04/23 03:43:18;;;;;;;81.57;36.08;;;10.10;99.90;;;;;;4991715;28;20036;-84
2023/04/23 03:45:44;;;;;;;77.75;35.53;;;10.00;99.90;;;;;;4987506;28;20049;-85
2023/04/23 03:48:10;;;;;;;74.05;34.92;;;10.00;99.90;;;;;;4987727;28;20034;-83
2023/04/23 03:50:39;;;;;;;73.80;35.53;;;10.10;99.90;;;;;;4978843;28;20117;-85
2023/04/23 03:53:05;;;;;;;73.85;34.83;;;10.00;99.90;;;;;;4986534;28;20034;-84
2023/04/23 03:55:30;;;;;;;78.22;36.67;;;10.10;99.90;;;;;;4986174;28;20094;-85
2023/04/23 03:57:58;;;;;;;85.22;34.65;;;10.10;99.90;;;;;;4984471;28;20026;-84
2023/04/23 04:00:24;;;;;;;76.65;34.50;;;10.10;99.90;;;;;;4986345;28;20477;-84
2023/04/23 04:02:49;;;;;;;82.30;35.80;;;10.10;99.90;;;;;;4994934;28;20030;-83
2023/04/23 04:05:15;;;;;;;78.00;34.08;;;10.10;99.90;;;;;;4980144;28;20208;-84
2023/04/23 04:07:41;;;;;;;79.75;34.85;;;10.10;99.90;;;;;;4985373;28;20100;-83
2023/04/23 04:10:07;;;;;;;77.25;34.42;;;10.10;99.90;;;;;;4987544;28;20455;-84
2023/04/23 04:12:32;;;;;;;78.57;34.08;;;10.10;99.90;;;;;;4980722;28;20029;-84
2023/04/23 04:14:58;;;;;;;70.47;32.30;;;10.10;99.90;;;;;;4980848;28;20034;-84
2023/04/23 04:17:24;;;;;;;73.57;34.20;;;10.10;99.90;;;;;;4981892;28;20018;-84
2023/04/23 04:19:50;;;;;;;74.80;34.80;;;10.20;99.90;;;;;;4979117;28;20018;-83
2023/04/23 04:22:18;;;;;;;68.65;33.10;;;10.10;99.90;;;;;;4980175;28;20330;-84
2023/04/23 04:24:46;;;;;;;72.97;32.85;;;10.10;99.90;;;;;;4979668;28;20332;-84
2023/04/23 04:27:13;;;;;;;75.30;32.75;;;10.10;99.90;;;;;;4980169;28;20030;-83
2023/04/23 04:29:42;;;;;;;74.68;32.17;;;10.10;99.90;;;;;;4978284;28;20014;-84
2023/04/23 04:32:08;;;;;;;65.60;33.38;;;10.10;99.90;;;;;;4991236;28;20382;-85
2023/04/23 04:34:35;;;;;;;70.53;32.33;;;10.10;99.90;;;;;;4980904;28;20491;-84
2023/04/23 04:37:00;;;;;;;69.38;32.10;;;10.10;99.90;;;;;;4986501;28;20025;-83
2023/04/23 04:39:26;;;;;;;71.75;32.40;;;10.00;99.90;;;;;;4985893;28;20018;-84
2023/04/23 04:41:53;;;;;;;74.05;32.40;;;10.00;99.90;;;;;;4998506;28;20018;-84
2023/04/23 04:44:21;;;;;;;65.63;31.60;;;10.10;99.90;;;;;;4983081;28;20482;-82
2023/04/23 04:46:46;;;;;;;61.83;30.30;;;10.10;99.90;;;;;;4983692;28;20025;-84
2023/04/23 04:49:14;;;;;;;62.33;29.65;;;10.00;99.90;;;;;;4981166;28;20400;-84
2023/04/23 04:51:40;;;;;;;61.63;30.13;;;10.10;99.90;;;;;;4980498;28;20026;-84
2023/04/23 04:54:06;;;;;;;60.33;30.02;;;10.20;99.90;;;;;;4990524;28;20065;-84
2023/04/23 04:56:35;;;;;;;65.65;29.08;;;10.30;99.90;;;;;;4991532;28;20107;-85
2023/04/23 04:59:02;;;;;;;56.63;27.25;;;10.40;99.90;;;;;;4988368;28;20028;-82
2023/04/23 05:01:29;;;;;;;56.40;28.77;;;10.50;99.90;;;;;;4982498;28;20414;-84
2023/04/23 05:03:55;;;;;;;62.30;28.67;;;10.60;99.90;;;;;;4975443;28;20624;-84
2023/04/23 05:06:24;;;;;;;58.50;28.38;;;10.70;99.90;;;;;;4985319;28;20018;-84
2023/04/23 05:08:50;;;;;;;59.47;29.23;;;10.80;99.90;;;;;;4996705;28;20293;-84
2023/04/23 05:11:17;;;;;;;53.67;27.42;;;10.80;99.90;;;;;;4983698;28;20058;-83
2023/04/23 05:13:47;;;;;;;58.30;27.17;;;10.90;99.90;;;;;;4978482;28;20038;-83
2023/04/23 05:16:13;;;;;;;54.53;27.48;;;11.00;99.90;;;;;;4964746;28;20340;-83
2023/04/23 05:18:40;;;;;;;53.28;27.55;;;11.10;99.90;;;;;;4983727;28;20021;-85
2023/04/23 05:21:06;;;;;;;55.55;27.60;;;11.10;99.90;;;;;;4977072;28;20069;-84
2023/04/23 05:23:33;;;;;;;56.80;28.85;;;11.20;99.90;;;;;;4985823;28;20042;-81
2023/04/23 05:25:59;;;;;;;60.40;29.00;;;11.30;99.90;;;;;;4985062;28;20022;-83
2023/04/23 05:28:27;;;;;;;47.50;26.63;;;11.30;99.90;;;;;;4977019;28;20432;-83
2023/04/23 05:31:00;;;;;;;48.35;27.92;;;11.40;99.90;;;;;;4981346;28;20077;-83
2023/04/23 05:33:25;;;;;;;;;;;11.40;99.90;;;;;;4979662;28;20062;-83
2023/04/23 05:35:51;;;;;;;51.30;26.33;;;11.50;99.90;;;;;;4978870;28;20392;-83
2023/04/23 05:38:17;;;;;;;46.95;25.75;;;11.60;99.90;;;;;;4984427;28;20633;-83
2023/04/23 05:40:43;;;;;;;47.22;26.50;;;11.60;99.90;;;;;;4982772;28;20493;-79
2023/04/23 05:43:08;;;;;;;45.67;25.33;;;11.70;99.90;;;;;;4986302;28;20100;-79
2023/04/23 05:45:34;;;;;;;45.50;24.75;;;11.80;99.90;;;;;;4985793;28;20026;-78
2023/04/23 05:48:00;;;;;;;46.17;25.75;;;11.90;99.90;;;;;;5136792;23;20041;-78
2023/04/23 05:50:25;;;;;;;45.72;25.63;;;12.00;99.90;;;;;;5003636;28;20029;-78
2023/04/23 05:52:51;;;;;;;44.92;24.50;;;12.10;99.90;;;;;;5021670;28;20021;-79
2023/04/23 05:55:17;;;;;;;42.45;23.50;;;12.20;99.90;;;;;;5010651;28;20057;-83
2023/04/23 05:57:43;;;;;;;43.65;23.48;;;12.20;99.90;;;;;;5012217;28;20032;-82
2023/04/23 06:00:10;;;;;;;48.63;24.50;;;12.30;99.90;;;;;;5003468;28;20515;-79
2023/04/23 06:02:36;;;;;;;40.28;23.45;;;12.30;99.90;;;;;;5003575;28;20496;-78
2023/04/23 06:05:03;;;;;;;34.90;21.25;;;12.30;99.90;;;;;;5010553;28;20124;-84
2023/04/23 06:07:29;;;;;;;40.28;22.95;;;12.30;99.90;;;;;;5017265;28;20030;-82
2023/04/23 06:09:55;;;;;;;45.78;23.60;;;12.30;99.90;;;;;;5002526;28;20022;-81
2023/04/23 06:12:20;;;;;;;40.78;21.98;;;12.40;99.90;;;;;;5016636;28;20025;-83
2023/04/23 06:14:46;;;;;;;37.72;21.95;;;12.40;99.90;;;;;;5004507;28;20029;-80
2023/04/23 06:17:12;;;;;;;39.63;22.05;;;12.40;99.90;;;;;;5010088;28;20057;-83
2023/04/23 06:19:38;;;;;;;45.47;21.98;;;12.40;99.90;;;;;;5004906;28;20036;-82
2023/04/23 06:22:03;;;;;;;37.53;21.88;;;12.50;99.90;;;;;;5014336;28;20486;-82
2023/04/23 06:24:29;;;;;;;41.60;21.17;;;12.60;99.90;;;;;;5004434;28;21225;-83
2023/04/23 06:26:55;;;;;;;36.40;19.67;;;12.50;99.90;;;;;;5002934;28;20362;-83
2023/04/23 06:29:20;;;;;;;36.25;20.35;;;12.50;99.90;;;;;;5005730;28;20029;-83
2023/04/23 06:31:46;;;;;;;34.90;20.85;;;12.50;99.90;;;;;;5014528;28;20026;-84
2023/04/23 06:34:11;;;;;;;32.72;19.63;;;12.60;99.90;;;;;;5008017;28;20084;-83
2023/04/23 06:36:37;;;;;;;33.53;20.58;;;12.60;99.90;;;;;;5004409;28;20072;-83
2023/04/23 06:39:03;;;;;;;34.28;19.20;;;12.70;99.90;;;;;;5009747;28;20021;-83
2023/04/23 06:41:31;;;;;;;32.63;19.45;;;12.70;99.90;;;;;;5010313;28;20029;-81
2023/04/23 06:43:57;;;;;;;36.42;19.13;;;12.80;99.90;;;;;;5021270;28;20473;-83
2023/04/23 06:46:22;;;;;;;30.15;17.95;;;12.80;99.90;;;;;;5005361;28;20018;-82
2023/04/23 06:48:48;;;;;;;27.10;17.50;;;12.80;99.90;;;;;;5001707;28;20034;-83
2023/04/23 06:51:14;;;;;;;26.73;16.17;;;12.90;99.90;;;;;;5020464;28;20044;-83
2023/04/23 06:53:40;;;;;;;25.13;15.13;;;13.00;99.90;;;;;;5004853;28;20099;-84
2023/04/23 06:56:06;;;;;;;23.75;15.60;;;13.10;99.90;;;;;;5021048;28;20033;-82
2023/04/23 06:58:32;;;;;;;24.25;14.20;;;13.20;99.90;;;;;;5000566;28;20538;-83
2023/04/23 07:00:59;;;;;;;21.45;13.40;;;13.10;99.90;;;;;;5016532;28;20034;-83
2023/04/23 07:03:28;;;;;;;20.10;12.63;;;13.20;99.90;;;;;;5019451;28;20025;-83
2023/04/23 07:05:53;;;;;;;21.45;13.75;;;13.30;99.90;;;;;;5012397;28;20025;-83
2023/04/23 07:08:22;;;;;;;20.77;13.95;;;13.40;99.90;;;;;;5003005;28;20706;-83
2023/04/23 07:10:47;;;;;;;21.95;13.85;;;13.50;99.90;;;;;;5004642;28;20457;-83
2023/04/23 07:13:16;;;;;;;20.30;12.15;;;13.50;99.90;;;;;;5004053;28;20401;-83
2023/04/23 07:15:42;;;;;;;18.10;11.75;;;13.60;99.90;;;;;;5003033;28;20037;-83
2023/04/23 07:18:08;;;;;;;18.08;11.88;;;13.70;99.90;;;;;;5021455;28;20053;-85
2023/04/23 07:20:34;;;;;;;21.45;11.80;;;13.70;99.90;;;;;;5019969;28;20045;-81
2023/04/23 07:23:00;;;;;;;17.80;11.13;;;13.70;99.90;;;;;;5004535;28;20018;-80
2023/04/23 07:25:26;;;;;;;21.17;10.82;;;13.80;99.90;;;;;;5004721;28;20090;-82
2023/04/23 07:27:54;;;;;;;16.55;11.18;;;13.90;99.90;;;;;;5000749;28;20120;-81
2023/04/23 07:30:24;;;;;;;16.98;11.20;;;14.10;99.90;;;;;;5012263;28;20022;-82
2023/04/23 07:32:49;;;;;;;18.08;10.48;;;14.10;99.90;;;;;;5002204;28;20112;-83
2023/04/23 07:35:15;;;;;;;16.02;10.82;;;14.20;99.90;;;;;;5004462;28;20116;-84
2023/04/23 07:37:41;;;;;;;241.48;92.65;;;14.30;99.90;;;;;;5003159;28;20030;-82
2023/04/23 07:40:07;;;;;;;16.67;10.13;;;14.40;99.90;;;;;;5009652;28;20026;-83
2023/04/23 07:42:33;;;;;;;16.60;10.10;;;14.50;99.90;;;;;;5003032;28;20397;-83
2023/04/23 07:44:59;;;;;;;15.82;8.70;;;14.60;99.90;;;;;;5008874;28;20029;-83
2023/04/23 07:47:25;;;;;;;13.00;7.97;;;14.60;99.90;;;;;;5019101;28;20084;-83
2023/04/23 07:49:52;;;;;;;14.80;7.55;;;14.70;99.90;;;;;;5001710;28;20053;-83
2023/04/23 07:52:18;;;;;;;13.23;8.13;;;14.80;99.90;;;;;;5009609;28;20445;-83
2023/04/23 07:54:45;;;;;;;10.48;7.68;;;15.00;99.90;;;;;;5001144;28;20053;-81
2023/04/23 07:57:11;;;;;;;14.02;8.13;;;14.90;99.90;;;;;;5002778;28;20475;-81
2023/04/23 07:59:38;;;;;;;10.82;8.02;;;15.00;99.90;;;;;;5018514;28;20018;-82
2023/04/23 08:02:04;;;;;;;76.28;33.08;;;15.00;99.90;;;;;;5019304;28;20493;-80
2023/04/23 08:04:32;;;;;;;139.20;48.10;;;15.10;99.90;;;;;;5018898;28;20022;-83
2023/04/23 08:06:58;;;;;;;13.48;7.80;;;15.30;99.90;;;;;;5005794;28;20025;-84
2023/04/23 08:09:24;;;;;;;8.35;6.45;;;15.40;99.90;;;;;;5009965;28;20021;-82
2023/04/23 08:11:50;;;;;;;13.48;7.85;;;15.50;99.90;;;;;;5007708;28;20112;-83
2023/04/23 08:14:17;;;;;;;13.50;7.30;;;15.70;99.90;;;;;;5020030;28;20537;-83
2023/04/23 08:16:43;;;;;;;10.40;7.43;;;15.70;99.90;;;;;;5012996;28;20025;-82
2023/04/23 08:19:08;;;;;;;8.63;6.60;;;15.70;99.90;;;;;;4999404;28;20044;-84
2023/04/23 08:21:34;;;;;;;9.73;6.00;;;16.00;99.90;;;;;;5022190;28;20101;-84
2023/04/23 08:24:01;;;;;;;13.07;6.90;;;16.20;99.90;;;;;;5012982;28;20630;-83
2023/04/23 08:26:27;;;;;;;11.82;7.10;;;16.30;99.90;;;;;;5007963;28;20092;-84
2023/04/23 08:28:56;;;;;;;10.93;6.40;;;16.40;99.90;;;;;;5013031;28;20481;-85
2023/04/23 08:31:23;;;;;;;8.70;6.28;;;16.60;99.90;;;;;;5004818;28;20029;-83
2023/04/23 08:33:49;;;;;;;218.32;83.20;;;16.70;99.90;;;;;;5005367;28;20045;-82
2023/04/23 08:36:15;;;;;;;10.27;6.85;;;17.10;99.90;;;;;;5010677;28;20120;-81
2023/04/23 08:38:41;;;;;;;11.95;6.25;;;17.50;99.90;;;;;;5023987;28;20097;-84
2023/04/23 08:41:09;;;;;;;7.93;5.90;;;17.90;99.90;;;;;;5012728;28;20044;-83
2023/04/23 08:44:10;;;;;;;8.95;6.00;;;17.90;99.90;;;;;;5012236;28;20033;-83
2023/04/23 08:46:40;;;;;;;10.00;5.47;;;17.70;99.90;;;;;;5020079;28;20034;-83
2023/04/23 08:49:07;;;;;;;12.02;5.65;;;17.90;99.90;;;;;;5020545;28;20488;-86
2023/04/23 08:51:40;;;;;;;9.65;5.55;;;18.00;99.90;;;;;;5022181;28;20034;-82
2023/04/23 08:54:09;;;;;;;8.25;4.97;;;18.30;99.90;;;;;;5003305;28;20034;-86
2023/04/23 08:56:36;;;;;;;6.72;4.70;;;18.60;99.90;;;;;;5020838;28;21114;-80
2023/04/23 08:59:02;;;;;;;8.20;4.50;;;18.90;99.90;;;;;;5018650;28;20451;-82
2023/04/23 09:01:29;;;;;;;5.15;4.50;;;19.10;99.90;;;;;;5022769;28;20533;-84
2023/04/23 09:03:59;;;;;;;9.90;4.03;;;19.30;99.90;;;;;;5005192;28;20036;-85
2023/04/23 09:06:25;;;;;;;7.43;3.63;;;19.00;99.90;;;;;;5021828;28;20397;-82
2023/04/23 09:08:54;;;;;;;7.22;4.38;;;18.80;99.90;;;;;;5003232;28;20501;-84
2023/04/23 09:11:22;;;;;;;9.88;3.58;;;18.80;99.90;;;;;;5004744;28;20033;-83
2023/04/23 09:13:48;;;;;;;8.88;3.70;;;18.60;99.90;;;;;;5008534;28;20041;-81
2023/04/23 09:16:14;;;;;;;10.57;4.22;;;18.70;99.90;;;;;;5019414;28;20280;-84
2023/04/23 09:18:41;;;;;;;5.18;3.58;;;18.80;99.90;;;;;;5005531;28;20120;-83
2023/04/23 09:21:06;;;;;;;9.50;3.25;;;18.90;99.90;;;;;;5016975;28;20021;-81
2023/04/23 09:23:33;;;;;;;7.75;3.53;;;19.20;99.90;;;;;;5012221;28;20025;-81
2023/04/23 09:25:58;;;;;;;10.88;3.38;;;19.10;99.90;;;;;;5011080;28;20029;-84
2023/04/23 09:28:37;;;;;;;8.57;3.65;;;19.30;99.90;;;;;;5017408;28;20450;-82
2023/04/23 09:31:06;;;;;;;13.18;4.13;;;19.50;99.90;;;;;;5011337;28;20378;-83
2023/04/23 09:33:34;;;;;;;6.57;3.35;;;20.10;99.90;;;;;;5003350;28;20025;-83
2023/04/23 09:36:13;;;;;;;6.65;3.15;;;20.30;99.90;;;;;;5000470;28;20851;-83
2023/04/23 09:38:42;;;;;;;8.32;3.00;;;20.00;99.90;;;;;;5019337;28;20030;-82
2023/04/23 09:41:40;;;;;;;8.07;2.58;;;19.50;99.90;;;;;;5001558;28;20077;-82
2023/04/23 09:44:12;;;;;;;10.02;2.55;;;20.00;99.90;;;;;;4969369;28;20034;-82
2023/04/23 09:46:41;;;;;;;5.80;2.63;;;20.20;99.90;;;;;;4999042;28;20022;-82
2023/04/23 09:49:09;;;;;;;6.90;2.33;;;20.60;99.90;;;;;;5002201;28;20021;-82
2023/04/23 09:51:39;;;;;;;5.53;2.30;;;21.00;99.90;;;;;;5010471;28;20246;-81
2023/04/23 09:54:25;;;;;;;9.57;3.30;;;21.00;99.40;;;;;;5001948;28;20455;-80
2023/04/23 09:56:55;;;;;;;7.90;2.10;;;21.00;98.30;;;;;;5017636;28;20466;-85
2023/04/23 09:59:30;;;;;;;11.23;2.50;;;21.10;99.90;;;;;;5023062;28;20115;-90
2023/04/23 10:02:00;;;;;;;7.35;2.65;;;21.10;98.70;;;;;;5002262;28;20549;-81
2023/04/23 10:04:26;;;;;;;8.00;2.17;;;20.90;99.90;;;;;;5031731;28;20489;-84
2023/04/23 10:06:54;;;;;;;5.80;2.20;;;20.30;97.60;;;;;;5019200;28;20021;-80
2023/04/23 10:09:23;;;;;;;5.35;1.80;;;20.40;99.00;;;;;;5003926;28;20121;-84
2023/04/23 10:11:53;;;;;;;6.30;1.77;;;20.60;97.30;;;;;;5000802;28;20140;-84
2023/04/23 10:14:20;;;;;;;9.63;2.35;;;21.00;97.80;;;;;;5013454;28;20131;-81
2023/04/23 10:16:48;;;;;;;5.28;2.15;;;21.00;96.40;;;;;;5009331;28;20037;-83
2023/04/23 10:19:16;;;;;;;5.80;1.92;;;20.90;95.20;;;;;;4988363;28;20362;-83
2023/04/23 10:21:45;;;;;;;9.70;2.13;;;21.20;96.00;;;;;;4984969;28;20020;-84
2023/04/23 10:24:13;;;;;;;6.22;1.63;;;21.60;96.00;;;;;;4998846;28;20566;-82
2023/04/23 10:26:41;;;;;;;5.78;1.55;;;22.10;94.50;;;;;;4982791;28;20182;-84
2023/04/23 10:29:15;;;;;;;10.18;1.80;;;21.70;91.30;;;;;;4990506;28;20106;-84
2023/04/23 10:31:44;;;;;;;6.45;1.77;;;21.80;92.00;;;;;;4948816;28;20061;-78
2023/04/23 10:34:10;;;;;;;4.75;1.60;;;21.90;92.30;;;;;;4991249;28;20452;-78
2023/04/23 10:36:37;;;;;;;5.90;1.60;;;22.20;92.50;;;;;;4981183;28;20022;-80
2023/04/23 10:39:07;;;;;;;6.07;1.60;;;22.10;90.20;;;;;;4979887;28;20029;-78
2023/04/23 10:41:39;;;;;;;7.28;1.67;;;22.00;90.90;;;;;;4989898;28;20442;-81
2023/04/23 10:44:10;;;;;;;4.78;1.98;;;21.40;90.00;;;;;;4947213;28;20494;-78
2023/04/23 10:46:36;;;;;;;4.45;1.63;;;21.20;91.20;;;;;;4982338;28;21055;-78
2023/04/23 10:49:15;;;;;;;8.23;1.70;;;21.00;92.60;;;;;;4985296;28;20041;-78
2023/04/23 10:51:44;;;;;;;6.18;1.80;;;21.00;92.00;;;;;;4982203;28;20037;-78
2023/04/23 10:54:10;;;;;;;4.70;1.48;;;20.90;92.60;;;;;;5003135;28;20206;-77
2023/04/23 10:56:40;;;;;;;4.85;1.35;;;20.60;92.40;;;;;;4985403;28;20027;-81
2023/04/23 10:59:33;;;;;;;6.05;1.55;;;20.50;90.60;;;;;;4999798;28;20497;-77
2023/04/23 11:02:11;;;;;;;4.13;1.58;;;20.70;91.30;;;;;;4978787;28;20045;-77
2023/04/23 11:04:44;;;;;;;6.97;1.83;;;20.60;90.40;;;;;;4979041;28;20414;-80
2023/04/23 11:07:11;;;;;;;4.10;1.85;;;20.30;89.60;;;;;;4999783;28;20030;-78
2023/04/23 11:09:41;;;;;;;5.15;1.60;;;20.50;91.10;;;;;;4985212;28;20052;-79
2023/04/23 11:12:26;;;;;;;9.80;1.48;;;20.60;91.70;;;;;;5001424;28;20037;-78
2023/04/23 11:14:53;;;;;;;5.88;1.65;;;20.40;89.30;;;;;;4985318;28;20430;-78
2023/04/23 11:17:31;;;;;;;42.55;15.70;;;20.40;90.10;;;;;;4985006;28;20177;-79
2023/04/23 11:20:14;;;;;;;4.72;1.50;;;20.30;90.40;;;;;;4984977;28;20026;-78
2023/04/23 11:22:46;;;;;;;7.38;1.48;;;20.40;89.40;;;;;;5001738;28;20080;-78
2023/04/23 11:25:13;;;;;;;5.53;1.33;;;20.60;88.60;;;;;;4987221;28;20137;-78
2023/04/23 11:27:43;;;;;;;7.05;1.40;;;20.60;86.80;;;;;;5000234;28;20091;-78
2023/04/23 11:30:13;;;;;;;3.40;1.20;;;20.70;89.20;;;;;;4997476;28;20814;-78
2023/04/23 11:32:47;;;;;;;4.32;1.40;;;20.90;87.20;;;;;;4989580;28;20089;-78
2023/04/23 11:35:14;;;;;;;4.32;1.35;;;21.50;88.70;;;;;;4988309;28;20168;-78
2023/04/23 11:37:41;;;;;;;3.85;1.45;;;21.50;86.30;;;;;;4989737;28;20136;-79
2023/04/23 11:40:12;;;;;;;5.45;1.60;;;21.60;85.80;;;;;;4990410;28;20026;-78
2023/04/23 11:42:54;;;;;;;5.55;1.30;;;21.30;86.30;;;;;;4990427;28;20071;-78
2023/04/23 11:45:24;;;;;;;4.47;1.40;;;21.40;86.40;;;;;;4983779;28;20027;-79
2023/04/23 11:47:55;;;;;;;2.55;1.05;;;21.10;87.90;;;;;;4988615;28;20022;-78
2023/04/23 11:50:31;;;;;;;4.88;1.35;;;20.60;85.90;;;;;;5003288;28;20036;-79
2023/04/23 11:53:10;;;;;;;3.83;0.98;;;20.30;85.00;;;;;;5004146;28;20213;-78
2023/04/23 11:55:37;;;;;;;5.72;1.63;;;20.30;87.00;;;;;;5001056;28;20046;-77
2023/04/23 11:58:02;;;;;;;8.32;1.40;;;20.40;86.40;;;;;;4990020;28;20048;-78
2023/04/23 12:00:28;;;;;;;8.13;1.50;;;20.50;86.90;;;;;;4992080;28;20030;-78
2023/04/23 12:02:58;;;;;;;5.90;1.27;;;20.50;87.00;;;;;;4988288;28;20018;-78
2023/04/23 12:05:32;;;;;;;5.85;1.30;;;20.50;89.20;;;;;;5006740;28;20018;-78
2023/04/23 12:08:18;;;;;;;5.03;1.40;;;20.50;88.00;;;;;;5005733;28;20023;-78
2023/04/23 12:10:50;;;;;;;6.20;1.40;;;20.80;84.80;;;;;;5003406;28;20025;-78
2023/04/23 12:13:20;;;;;;;5.10;1.45;;;21.00;84.90;;;;;;4989687;28;20025;-78
2023/04/23 12:15:51;;;;;;;7.18;1.75;;;21.20;86.20;;;;;;4988799;28;20049;-78
2023/04/23 12:18:17;;;;;;;4.32;1.35;;;21.20;83.40;;;;;;4983840;28;20033;-79
2023/04/23 12:20:43;;;;;;;7.30;2.22;;;21.30;84.80;;;;;;4996499;28;20379;-82
2023/04/23 12:23:09;;;;;;;5.97;1.50;;;21.70;85.80;;;;;;4980684;28;20039;-82
2023/04/23 12:25:41;;;;;;;3.92;1.23;;;22.10;85.60;;;;;;4986946;28;20045;-82
2023/04/23 12:28:24;;;;;;;5.30;1.27;;;22.10;87.20;;;;;;5001750;28;20024;-83
2023/04/23 12:30:52;;;;;;;4.03;1.20;;;22.30;85.40;;;;;;4987795;28;20031;-83
2023/04/23 12:33:19;;;;;;;3.22;1.20;;;22.10;83.20;;;;;;5004252;28;20026;-82
2023/04/23 12:35:52;;;;;;;44.88;18.77;;;21.90;81.00;;;;;;4985557;28;20034;-79
2023/04/23 12:38:23;;;;;;;3.35;1.50;;;22.10;83.10;;;;;;4980913;28;20042;-84